createdAt,value
2022-08-30T00:01:04.341Z,19.60
2022-08-30T00:03:48.806Z,19.65
2022-08-30T00:06:22.296Z,19.70
2022-08-30T00:08:52.710Z,19.75
2022-08-30T00:11:29.458Z,19.83
2022-08-30T00:13:59.511Z,19.88
2022-08-30T00:16:29.532Z,19.98
2022-08-30T00:18:59.548Z,20.04
2022-08-30T00:21:29.623Z,20.13
2022-08-30T00:23:59.534Z,20.19
2022-08-30T00:26:29.683Z,20.25
2022-08-30T00:29:00.194Z,20.34
2022-08-30T00:31:30.373Z,20.41
2022-08-30T00:34:00.447Z,20.49
2022-08-30T00:36:30.921Z,20.56
2022-08-30T00:39:01.123Z,20.63
2022-08-30T00:41:31.123Z,20.69
2022-08-30T00:44:01.061Z,20.76
2022-08-30T00:46:31.314Z,20.84
2022-08-30T00:49:06.002Z,20.93
2022-08-30T00:51:36.783Z,20.97
2022-08-30T00:54:07.487Z,21.04
2022-08-30T00:56:38.285Z,21.09
2022-08-30T00:59:10.770Z,21.17
2022-08-30T01:01:41.138Z,21.23
2022-08-30T01:04:16.149Z,21.31
2022-08-30T01:06:46.372Z,21.41
2022-08-30T01:09:16.824Z,21.53
2022-08-30T01:11:48.497Z,21.64
2022-08-30T01:14:19.619Z,21.72
2022-08-30T01:16:50.889Z,21.83
2022-08-30T01:19:49.433Z,21.91
2022-08-30T01:22:31.693Z,22.00
2022-08-30T01:25:04.242Z,22.06
2022-08-30T01:27:44.431Z,22.13
2022-08-30T01:30:16.043Z,22.20
2022-08-30T01:32:49.477Z,22.26
2022-08-30T01:35:21.919Z,22.35
2022-08-30T01:37:52.968Z,22.41
2022-08-30T01:40:23.596Z,22.50
2022-08-30T01:42:53.726Z,22.58
2022-08-30T01:45:24.035Z,22.66
2022-08-30T01:47:54.233Z,22.71
2022-08-30T01:50:24.377Z,22.78
2022-08-30T01:52:54.335Z,22.83
2022-08-30T01:55:24.513Z,22.90
2022-08-30T01:57:54.614Z,22.92
2022-08-30T02:00:24.718Z,22.95
2022-08-30T02:02:56.522Z,22.99
2022-08-30T02:05:27.706Z,23.05
2022-08-30T02:07:58.024Z,23.11
2022-08-30T02:10:28.874Z,23.14
2022-08-30T02:12:58.886Z,23.16
2022-08-30T02:15:29.018Z,23.22
2022-08-30T02:17:59.416Z,23.24
2022-08-30T02:20:31.470Z,23.31
2022-08-30T02:23:01.650Z,23.37
2022-08-30T02:25:31.634Z,23.45
2022-08-30T02:28:00.936Z,23.54
2022-08-30T02:30:31.372Z,23.59
2022-08-30T02:33:01.697Z,23.65
2022-08-30T02:35:31.764Z,23.72
2022-08-30T02:38:01.917Z,23.79
2022-08-30T02:40:32.304Z,23.80
2022-08-30T02:43:02.328Z,23.85
2022-08-30T02:45:32.435Z,23.90
2022-08-30T02:48:02.438Z,23.94
2022-08-30T02:50:32.690Z,23.98
2022-08-30T02:53:02.691Z,24.03
2022-08-30T02:55:32.761Z,24.09
2022-08-30T02:58:02.760Z,24.16
2022-08-30T03:00:33.412Z,24.22
2022-08-30T03:03:05.402Z,24.27
2022-08-30T03:05:39.633Z,24.31
2022-08-30T03:08:09.991Z,24.35
2022-08-30T03:10:40.561Z,24.37
2022-08-30T03:13:10.578Z,24.41
2022-08-30T03:15:41.837Z,24.44
2022-08-30T03:18:12.430Z,24.49
2022-08-30T03:20:46.119Z,24.51
2022-08-30T03:23:25.381Z,24.56
2022-08-30T03:25:55.964Z,24.60
2022-08-30T03:28:26.726Z,24.63
2022-08-30T03:30:57.234Z,24.66
2022-08-30T03:33:27.197Z,24.70
2022-08-30T03:35:58.134Z,24.74
2022-08-30T03:38:28.462Z,24.79
2022-08-30T03:40:58.474Z,24.83
2022-08-30T03:43:28.448Z,24.89
2022-08-30T03:45:59.974Z,24.93
2022-08-30T03:48:31.344Z,24.99
2022-08-30T03:51:02.122Z,25.04
2022-08-30T03:53:36.291Z,25.07
2022-08-30T03:56:06.509Z,25.09
2022-08-30T03:58:36.583Z,25.12
2022-08-30T04:01:06.661Z,25.17
2022-08-30T04:03:37.286Z,25.19
2022-08-30T04:06:07.049Z,25.23
2022-08-30T04:08:37.069Z,25.24
2022-08-30T04:11:08.495Z,25.25
2022-08-30T04:13:39.605Z,25.26
2022-08-30T04:16:09.946Z,25.28
2022-08-30T04:18:40.758Z,25.29
2022-08-30T04:21:13.983Z,25.31
2022-08-30T04:23:45.200Z,25.34
2022-08-30T04:26:15.924Z,25.35
2022-08-30T04:28:46.408Z,25.36
2022-08-30T04:31:20.281Z,25.38
2022-08-30T04:33:51.087Z,25.37
2022-08-30T04:36:22.350Z,25.39
2022-08-30T04:38:52.724Z,25.42
2022-08-30T04:41:25.548Z,25.42
2022-08-30T04:43:55.982Z,25.42
2022-08-30T04:46:26.466Z,25.45
2022-08-30T04:48:56.656Z,25.49
2022-08-30T04:51:26.780Z,25.51
2022-08-30T04:53:56.768Z,25.53
2022-08-30T04:56:26.630Z,25.57
2022-08-30T04:58:58.399Z,25.58
2022-08-30T05:01:32.127Z,25.59
2022-08-30T05:04:16.787Z,25.62
2022-08-30T05:06:47.043Z,25.62
2022-08-30T05:09:17.367Z,25.66
2022-08-30T05:11:47.661Z,25.67
2022-08-30T05:14:17.813Z,25.72
2022-08-30T05:16:48.607Z,25.77
2022-08-30T05:19:18.657Z,25.78
2022-08-30T05:21:48.558Z,25.81
2022-08-30T05:24:18.596Z,25.84
2022-08-30T05:29:23.375Z,25.88
2022-08-30T05:31:53.789Z,25.92
2022-08-30T05:34:23.743Z,25.95
2022-08-30T05:36:54.701Z,25.97
2022-08-30T05:39:24.969Z,26.01
2022-08-30T05:41:58.875Z,26.06
2022-08-30T05:44:28.925Z,26.04
2022-08-30T05:46:58.979Z,26.09
2022-08-30T05:49:28.914Z,26.13
2022-08-30T05:51:58.845Z,26.17
2022-08-30T05:54:28.980Z,26.18
2022-08-30T05:56:59.018Z,26.21
2022-08-30T05:59:29.137Z,26.24
2022-08-30T06:02:00.678Z,26.28
2022-08-30T06:04:31.352Z,26.30
2022-08-30T06:07:01.581Z,26.33
2022-08-30T06:09:31.784Z,26.36
2022-08-30T06:12:02.027Z,26.40
2022-08-30T06:14:32.228Z,26.44
2022-08-30T06:17:02.262Z,26.50
2022-08-30T06:19:32.198Z,26.53
2022-08-30T06:22:02.340Z,26.53
2022-08-30T06:24:56.437Z,26.62
2022-08-30T06:27:27.145Z,26.67
2022-08-30T06:29:57.200Z,26.71
2022-08-30T06:32:27.360Z,26.76
2022-08-30T06:34:57.465Z,26.72
2022-08-30T06:37:29.707Z,26.78
2022-08-30T06:40:02.205Z,26.82
2022-08-30T06:42:34.957Z,26.86
2022-08-30T06:45:10.976Z,26.91
2022-08-30T06:47:42.239Z,26.94
2022-08-30T06:50:17.815Z,26.98
2022-08-30T06:52:48.458Z,27.01
2022-08-30T06:55:20.115Z,27.06
2022-08-30T06:57:50.578Z,27.08
2022-08-30T07:00:21.535Z,27.10
2022-08-30T07:02:52.940Z,27.10
2022-08-30T07:05:25.566Z,27.16
2022-08-30T07:07:59.611Z,27.19
2022-08-30T07:10:30.607Z,27.21
2022-08-30T07:13:01.458Z,27.23
2022-08-30T07:15:32.015Z,27.26
2022-08-30T07:18:26.617Z,27.30
2022-08-30T07:20:57.574Z,27.31
2022-08-30T07:23:27.349Z,27.34
2022-08-30T07:25:58.250Z,27.38
2022-08-30T07:28:28.453Z,27.42
2022-08-30T07:30:58.739Z,27.46
2022-08-30T07:33:30.154Z,27.51
2022-08-30T07:36:01.434Z,27.53
2022-08-30T07:38:32.574Z,27.54
2022-08-30T07:41:03.260Z,27.57
2022-08-30T07:43:36.007Z,27.58
2022-08-30T07:46:09.510Z,27.62
2022-08-30T07:48:39.948Z,27.65
2022-08-30T07:51:20.267Z,27.72
2022-08-30T07:53:50.688Z,27.76
2022-08-30T07:56:20.823Z,27.81
2022-08-30T07:58:51.540Z,27.87
2022-08-30T08:01:23.841Z,27.91
2022-08-30T08:03:54.423Z,27.95
2022-08-30T08:06:25.873Z,27.98
2022-08-30T08:08:57.775Z,28.01
2022-08-30T08:11:33.290Z,28.04
2022-08-30T08:14:05.320Z,28.06
2022-08-30T08:16:38.426Z,28.10
2022-08-30T08:19:10.499Z,28.12
2022-08-30T08:21:41.790Z,28.16
2022-08-30T08:24:12.244Z,28.19
2022-08-30T08:26:45.472Z,28.20
2022-08-30T08:29:16.196Z,28.28
2022-08-30T08:31:51.369Z,28.33
2022-08-30T08:34:24.978Z,28.39
2022-08-30T08:36:56.167Z,28.48
2022-08-30T08:39:26.607Z,28.51
2022-08-30T08:42:04.171Z,28.54
2022-08-30T08:44:55.282Z,28.46
2022-08-30T08:47:46.136Z,28.36
2022-08-30T08:50:21.402Z,28.28
2022-08-30T08:53:45.247Z,28.20
2022-08-30T08:56:17.685Z,28.09
2022-08-30T08:58:49.244Z,27.99
2022-08-30T09:01:22.662Z,27.88
2022-08-30T09:03:54.368Z,27.81
2022-08-30T09:06:36.139Z,27.73
2022-08-30T09:09:07.210Z,27.65
2022-08-30T09:11:39.272Z,27.58
2022-08-30T09:14:16.590Z,27.50
2022-08-30T09:16:55.978Z,27.42
2022-08-30T09:19:46.722Z,27.35
2022-08-30T09:22:19.310Z,27.27
2022-08-30T09:24:54.410Z,27.19
2022-08-30T09:27:35.515Z,27.10
2022-08-30T09:30:19.706Z,27.02
2022-08-30T09:32:56.851Z,26.95
2022-08-30T09:35:37.134Z,26.88
2022-08-30T09:38:14.374Z,26.82
2022-08-30T09:40:47.839Z,26.76
2022-08-30T09:43:25.819Z,26.72
2022-08-30T09:46:02.204Z,26.65
2022-08-30T09:49:00.178Z,26.60
2022-08-30T09:52:00.607Z,26.54
2022-08-30T09:54:46.977Z,26.49
2022-08-30T09:57:34.154Z,26.40
2022-08-30T10:00:09.994Z,26.35
2022-08-30T10:02:55.966Z,26.30
2022-08-30T10:06:09.774Z,26.24
2022-08-30T10:09:06.945Z,26.17
2022-08-30T10:12:04.280Z,26.14
2022-08-30T10:14:47.364Z,26.08
2022-08-30T10:17:53.766Z,25.99
2022-08-30T10:20:34.931Z,25.94
2022-08-30T10:23:14.060Z,25.83
2022-08-30T10:26:02.140Z,25.80
2022-08-30T10:28:57.386Z,25.75
2022-08-30T10:31:37.225Z,25.67
2022-08-30T10:34:33.004Z,25.61
2022-08-30T10:37:27.261Z,25.53
2022-08-30T10:40:34.910Z,25.41
2022-08-30T10:43:15.708Z,25.28
2022-08-30T10:45:52.209Z,25.14
2022-08-30T10:48:47.491Z,25.01
2022-08-30T10:51:42.786Z,24.85
2022-08-30T10:54:44.178Z,24.52
2022-08-30T10:57:14.152Z,23.86
2022-08-30T10:59:50.072Z,23.32
2022-08-30T11:02:40.801Z,22.82
2022-08-30T11:05:51.210Z,22.34
2022-08-30T11:08:38.060Z,22.05
2022-08-30T11:11:43.784Z,21.92
2022-08-30T11:14:32.834Z,21.74
2022-08-30T11:17:06.910Z,21.60
2022-08-30T11:19:46.029Z,21.51
2022-08-30T11:22:41.354Z,21.47
2022-08-30T11:25:20.471Z,21.45
2022-08-30T11:27:57.088Z,21.43
2022-08-30T11:30:27.635Z,21.41
2022-08-30T11:33:07.945Z,21.44
2022-08-30T11:35:46.073Z,21.42
2022-08-30T11:38:27.662Z,21.41
2022-08-30T11:40:57.784Z,21.42
2022-08-30T11:43:37.787Z,21.40
2022-08-30T11:46:29.194Z,21.37
2022-08-30T11:49:36.718Z,21.37
2022-08-30T11:52:36.641Z,21.37
2022-08-30T11:55:24.136Z,21.36
2022-08-30T11:58:03.294Z,21.36
2022-08-30T12:00:51.454Z,21.37
2022-08-30T12:03:35.230Z,21.38
2022-08-30T12:06:08.900Z,21.36
2022-08-30T12:08:48.816Z,21.36
2022-08-30T12:11:18.943Z,21.34
2022-08-30T12:13:49.075Z,21.31
2022-08-30T12:17:07.202Z,21.31
2022-08-30T12:19:37.958Z,21.25
2022-08-30T12:22:17.313Z,21.23
2022-08-30T12:24:54.031Z,21.13
2022-08-30T12:27:32.843Z,21.14
2022-08-30T12:30:09.997Z,21.17
2022-08-30T12:32:51.479Z,21.16
2022-08-30T12:35:29.769Z,21.15
2022-08-30T12:38:07.482Z,21.16
2022-08-30T12:40:37.846Z,21.15
2022-08-30T12:43:20.787Z,21.18
2022-08-30T12:45:52.248Z,21.16
2022-08-30T12:48:24.217Z,21.07
2022-08-30T12:50:59.178Z,21.04
2022-08-30T12:53:33.909Z,21.03
2022-08-30T12:56:08.546Z,21.07
2022-08-30T12:58:43.089Z,21.05
2022-08-30T13:01:31.287Z,21.02
2022-08-30T13:04:01.516Z,20.97
2022-08-30T13:06:43.608Z,20.96
2022-08-30T13:09:26.313Z,20.86
2022-08-30T13:11:58.240Z,20.77
2022-08-30T13:14:42.388Z,20.73
2022-08-30T13:17:29.423Z,20.68
2022-08-30T13:20:10.481Z,20.62
2022-08-30T13:23:05.513Z,20.60
2022-08-30T13:25:37.004Z,20.48
2022-08-30T13:28:09.264Z,20.51
2022-08-30T13:30:40.792Z,20.45
2022-08-30T13:33:12.836Z,20.41
2022-08-30T13:35:44.100Z,20.30
2022-08-30T13:38:14.691Z,20.41
2022-08-30T13:40:45.785Z,20.42
2022-08-30T13:43:16.410Z,20.43
2022-08-30T13:45:46.746Z,20.50
2022-08-30T13:48:18.020Z,20.54
2022-08-30T13:50:55.073Z,20.59
2022-08-30T13:56:14.657Z,20.66
2022-08-30T13:58:46.104Z,20.71
2022-08-30T14:01:18.050Z,20.73
2022-08-30T14:07:11.860Z,20.80
2022-08-30T14:09:30.153Z,20.83
2022-08-30T14:12:00.810Z,20.80
2022-08-30T14:14:42.524Z,20.77
2022-08-30T14:17:14.288Z,20.73
2022-08-30T14:19:44.388Z,20.70
2022-08-30T14:22:15.173Z,20.67
2022-08-30T14:24:45.567Z,20.63
2022-08-30T14:27:15.796Z,20.60
2022-08-30T14:29:48.309Z,20.58
2022-08-30T14:32:18.957Z,20.54
2022-08-30T14:34:49.048Z,20.50
2022-08-30T14:37:21.647Z,20.48
2022-08-30T14:39:51.176Z,20.45
2022-08-30T14:42:21.592Z,20.39
2022-08-30T14:44:56.512Z,20.37
2022-08-30T14:47:29.416Z,20.31
2022-08-30T14:50:03.101Z,20.24
2022-08-30T14:52:34.409Z,20.17
2022-08-30T14:55:09.111Z,20.14
2022-08-30T14:57:40.746Z,20.12
2022-08-30T15:00:14.878Z,20.09
2022-08-30T15:02:45.516Z,20.09
2022-08-30T15:05:16.470Z,20.06
2022-08-30T15:07:51.733Z,20.04
2022-08-30T15:10:22.713Z,20.07
2022-08-30T15:12:57.279Z,20.03
2022-08-30T15:15:27.568Z,19.97
2022-08-30T15:17:57.368Z,19.93
2022-08-30T15:20:28.882Z,19.93
2022-08-30T15:22:59.928Z,19.89
2022-08-30T15:25:30.360Z,19.85
2022-08-30T15:28:00.628Z,19.76
2022-08-30T15:30:33.824Z,19.66
2022-08-30T15:33:05.095Z,19.62
2022-08-30T15:35:36.358Z,19.58
2022-08-30T15:38:07.065Z,19.54
2022-08-30T15:40:37.319Z,19.50
2022-08-30T15:43:08.186Z,19.48
2022-08-30T15:45:38.661Z,19.43
2022-08-30T15:48:08.969Z,19.44
2022-08-30T15:50:39.494Z,19.48
2022-08-30T15:53:10.979Z,19.48
2022-08-30T15:55:41.157Z,19.50
2022-08-30T15:58:11.280Z,19.51
2022-08-30T16:00:44.985Z,19.47
2022-08-30T16:03:15.907Z,19.44
2022-08-30T16:05:48.995Z,19.45
2022-08-30T16:08:20.373Z,19.48
2022-08-30T16:10:51.931Z,19.50
2022-08-30T16:13:23.621Z,19.51
2022-08-30T16:15:53.598Z,19.49
2022-08-30T16:18:23.587Z,19.50
2022-08-30T16:21:23.692Z,19.52
2022-08-30T16:24:01.059Z,19.48
2022-08-30T16:26:32.943Z,19.42
2022-08-30T16:29:05.018Z,19.40
2022-08-30T16:31:38.318Z,19.39
2022-08-30T16:34:10.229Z,19.37
2022-08-30T16:36:41.123Z,19.36
2022-08-30T16:39:14.082Z,19.32
2022-08-30T16:41:46.769Z,19.31
2022-08-30T16:44:20.063Z,19.29
2022-08-30T16:46:54.037Z,19.27
2022-08-30T16:49:26.190Z,19.27
2022-08-30T16:51:56.955Z,19.26
2022-08-30T16:54:27.677Z,19.22
2022-08-30T16:56:57.773Z,19.22
2022-08-30T16:59:27.909Z,19.19
2022-08-30T17:01:59.372Z,19.21
2022-08-30T17:04:29.880Z,19.20
2022-08-30T17:06:59.863Z,19.20
2022-08-30T17:09:29.820Z,19.21
2022-08-30T17:12:00.323Z,19.22
2022-08-30T17:14:34.261Z,19.22
2022-08-30T17:17:04.437Z,19.20
2022-08-30T17:19:39.385Z,19.21
2022-08-30T17:22:14.678Z,19.22
2022-08-30T17:24:44.933Z,19.22
2022-08-30T17:27:16.307Z,19.19
2022-08-30T17:29:46.608Z,19.22
2022-08-30T17:32:16.680Z,19.21
2022-08-30T17:34:47.944Z,19.23
2022-08-30T17:37:21.485Z,19.25
2022-08-30T17:39:52.269Z,19.27
2022-08-30T17:42:22.457Z,19.29
2022-08-30T17:44:52.633Z,19.32
2022-08-30T17:47:22.800Z,19.34
2022-08-30T17:49:55.853Z,19.36
2022-08-30T17:52:26.268Z,19.35
2022-08-30T17:54:56.441Z,19.32
2022-08-30T17:57:29.577Z,19.25
2022-08-30T18:00:01.273Z,19.19
2022-08-30T18:02:34.011Z,19.14
2022-08-30T18:05:04.698Z,19.11
2022-08-30T18:07:34.715Z,19.09
2022-08-30T18:10:05.549Z,19.03
2022-08-30T18:12:36.035Z,19.01
2022-08-30T18:15:12.567Z,18.99
2022-08-30T18:17:46.159Z,18.98
2022-08-30T18:20:19.271Z,18.95
2022-08-30T18:22:53.441Z,18.96
2022-08-30T18:25:24.278Z,18.92
2022-08-30T18:27:58.169Z,18.91
2022-08-30T18:30:34.654Z,18.88
2022-08-30T18:33:10.462Z,18.85
2022-08-30T18:35:47.284Z,18.86
2022-08-30T18:38:23.570Z,18.85
2022-08-30T18:41:05.988Z,18.83
2022-08-30T18:43:36.257Z,18.78
2022-08-30T18:46:12.379Z,18.76
2022-08-30T18:48:43.647Z,18.70
2022-08-30T18:51:16.281Z,18.63
2022-08-30T18:53:48.825Z,18.59
2022-08-30T18:56:19.823Z,18.54
2022-08-30T18:58:50.903Z,18.51
2022-08-30T19:01:23.051Z,18.46
2022-08-30T19:03:54.150Z,18.46
2022-08-30T19:06:24.277Z,18.45
2022-08-30T19:08:54.245Z,18.46
2022-08-30T19:11:24.825Z,18.44
2022-08-30T19:13:54.749Z,18.41
2022-08-30T19:16:25.737Z,18.39
2022-08-30T19:18:55.878Z,18.38
2022-08-30T19:21:25.899Z,18.38
2022-08-30T19:23:56.040Z,18.38
2022-08-30T19:26:27.551Z,18.40
2022-08-30T19:28:58.065Z,18.40
2022-08-30T19:31:33.128Z,18.40
2022-08-30T19:34:03.796Z,18.36
2022-08-30T19:36:34.562Z,18.36
2022-08-30T19:39:05.018Z,18.35
2022-08-30T19:41:35.167Z,18.37
2022-08-30T19:44:06.946Z,18.35
2022-08-30T19:46:37.770Z,18.36
2022-08-30T19:49:11.458Z,18.34
2022-08-30T19:51:46.505Z,18.35
2022-08-30T19:54:17.416Z,18.35
2022-08-30T19:56:48.239Z,18.33
2022-08-30T19:59:20.144Z,18.33
2022-08-30T20:01:50.884Z,18.32
2022-08-30T20:04:21.141Z,18.31
2022-08-30T20:06:53.360Z,18.29
2022-08-30T20:09:23.572Z,18.28
2022-08-30T20:11:53.808Z,18.28
2022-08-30T20:14:25.662Z,18.26
2022-08-30T20:16:55.921Z,18.24
2022-08-30T20:19:27.829Z,18.22
2022-08-30T20:22:07.692Z,18.19
2022-08-30T20:24:39.459Z,18.16
2022-08-30T20:27:14.442Z,18.19
2022-08-30T20:29:44.551Z,18.16
2022-08-30T20:32:14.710Z,18.15
2022-08-30T20:34:44.696Z,18.14
2022-08-30T20:37:16.809Z,18.13
2022-08-30T20:39:47.349Z,18.13
2022-08-30T20:42:18.991Z,18.12
2022-08-30T20:44:49.286Z,18.10
2022-08-30T20:47:19.635Z,18.09
2022-08-30T20:49:49.931Z,18.06
2022-08-30T20:52:20.741Z,18.05
2022-08-30T20:54:54.719Z,18.00
2022-08-30T20:57:25.521Z,17.98
2022-08-30T20:59:55.831Z,17.99
2022-08-30T21:02:30.477Z,17.98
2022-08-30T21:05:01.053Z,17.98
2022-08-30T21:07:31.654Z,17.97
2022-08-30T21:10:01.748Z,17.97
2022-08-30T21:12:32.221Z,17.97
2022-08-30T21:15:15.350Z,17.96
2022-08-30T21:17:53.350Z,17.95
2022-08-30T21:20:23.829Z,17.92
2022-08-30T21:22:53.884Z,17.92
2022-08-30T21:25:23.880Z,17.90
2022-08-30T21:27:55.154Z,17.87
2022-08-30T21:30:25.918Z,17.88
2022-08-30T21:33:00.028Z,17.84
2022-08-30T21:35:49.840Z,17.82
2022-08-30T21:38:21.169Z,17.82
2022-08-30T21:40:51.916Z,17.81
2022-08-30T21:43:22.174Z,17.82
2022-08-30T21:45:54.735Z,17.82
2022-08-30T21:48:25.280Z,17.79
2022-08-30T21:50:56.587Z,17.76
2022-08-30T21:53:27.458Z,17.74
2022-08-30T21:55:57.599Z,17.73
2022-08-30T21:58:29.882Z,17.71
2022-08-30T22:00:59.847Z,17.72
2022-08-30T22:03:30.058Z,17.74
2022-08-30T22:06:00.491Z,17.77
2022-08-30T22:08:30.581Z,17.82
2022-08-30T22:11:01.211Z,17.85
2022-08-30T22:13:31.828Z,17.82
2022-08-30T22:16:01.157Z,17.83
2022-08-30T22:18:31.102Z,17.82
2022-08-30T22:21:01.540Z,17.84
2022-08-30T22:23:34.999Z,17.87
2022-08-30T22:26:06.679Z,17.89
2022-08-30T22:28:38.009Z,17.97
2022-08-30T22:31:11.595Z,18.03
2022-08-30T22:33:42.621Z,18.06
2022-08-30T22:36:20.131Z,18.11
2022-08-30T22:38:52.595Z,18.14
2022-08-30T22:41:25.672Z,18.21
2022-08-30T22:44:01.507Z,18.26
2022-08-30T22:46:34.519Z,18.32
2022-08-30T22:49:05.665Z,18.38
2022-08-30T22:51:36.577Z,18.44
2022-08-30T22:54:08.552Z,18.53
2022-08-30T22:56:39.745Z,18.59
2022-08-30T22:59:09.949Z,18.64
2022-08-30T23:01:44.428Z,18.70
2022-08-30T23:04:14.378Z,18.78
2022-08-30T23:06:49.597Z,18.83
2022-08-30T23:09:20.588Z,18.88
2022-08-30T23:11:50.434Z,18.96
2022-08-30T23:14:20.471Z,19.04
2022-08-30T23:16:50.709Z,19.09
2022-08-30T23:19:20.746Z,19.21
2022-08-30T23:21:50.758Z,19.29
2022-08-30T23:24:38.926Z,19.36
2022-08-30T23:27:27.260Z,19.43
2022-08-30T23:30:15.586Z,19.52
2022-08-30T23:33:04.247Z,19.63
2022-08-30T23:35:52.515Z,19.73
2022-08-30T23:38:41.700Z,19.81
2022-08-30T23:41:33.966Z,19.89
2022-08-30T23:44:23.052Z,20.00
2022-08-30T23:47:11.392Z,20.10
2022-08-30T23:49:59.614Z,20.20
2022-08-30T23:52:47.555Z,20.29
2022-08-30T23:55:35.488Z,20.38
2022-08-30T23:58:23.588Z,20.50
